sensor_id;sensor_type;location;lat;lon;timestamp;temperature;humidity
50013;DHT22;35901;48.694;9.476;2024-01-30T00:00:06;-1.70;99.90
50013;DHT22;35901;48.694;9.476;2024-01-30T00:02:33;-1.70;99.90
50013;DHT22;35901;48.694;9.476;2024-01-30T00:04:59;-1.70;99.90
50013;DHT22;35901;48.694;9.476;2024-01-30T00:07:25;-1.60;99.90
50013;DHT22;35901;48.694;9.476;2024-01-30T00:09:50;-1.60;99.90
50013;DHT22;35901;48.694;9.476;2024-01-30T00:12:16;-1.60;99.90
50013;DHT22;35901;48.694;9.476;2024-01-30T00:14:42;-1.70;99.90
50013;DHT22;35901;48.694;9.476;2024-01-30T00:17:11;-1.80;99.90
50013;DHT22;35901;48.694;9.476;2024-01-30T00:19:36;-1.90;99.90
50013;DHT22;35901;48.694;9.476;2024-01-30T00:22:02;-1.70;99.90
50013;DHT22;35901;48.694;9.476;2024-01-30T00:24:28;-1.50;99.90
50013;DHT22;35901;48.694;9.476;2024-01-30T00:26:54;-1.20;99.90
50013;DHT22;35901;48.694;9.476;2024-01-30T00:29:19;-1.10;99.90
50013;DHT22;35901;48.694;9.476;2024-01-30T00:31:45;-1.00;99.90
50013;DHT22;35901;48.694;9.476;2024-01-30T00:34:11;-1.10;99.90
50013;DHT22;35901;48.694;9.476;2024-01-30T00:36:37;-1.20;99.90
50013;DHT22;35901;48.694;9.476;2024-01-30T00:39:03;-1.50;99.90
50013;DHT22;35901;48.694;9.476;2024-01-30T00:41:32;-1.60;99.90
50013;DHT22;35901;48.694;9.476;2024-01-30T00:43:58;-1.80;99.90
50013;DHT22;35901;48.694;9.476;2024-01-30T00:46:23;-1.80;99.90
50013;DHT22;35901;48.694;9.476;2024-01-30T00:48:49;-1.90;99.90
50013;DHT22;35901;48.694;9.476;2024-01-30T00:51:15;-1.90;99.90
50013;DHT22;35901;48.694;9.476;2024-01-30T00:53:40;-1.80;99.90
50013;DHT22;35901;48.694;9.476;2024-01-30T00:56:07;-1.70;99.90
50013;DHT22;35901;48.694;9.476;2024-01-30T00:58:33;-1.60;99.90
50013;DHT22;35901;48.694;9.476;2024-01-30T01:00:59;-1.60;99.90
50013;DHT22;35901;48.694;9.476;2024-01-30T01:03:25;-1.60;99.90
50013;DHT22;35901;48.694;9.476;2024-01-30T01:05:50;-1.60;99.90
50013;DHT22;35901;48.694;9.476;2024-01-30T01:08:16;-1.60;99.90
50013;DHT22;35901;48.694;9.476;2024-01-30T01:10:42;-1.70;99.90
50013;DHT22;35901;48.694;9.476;2024-01-30T01:13:07;-1.80;99.90
50013;DHT22;35901;48.694;9.476;2024-01-30T01:15:33;-1.70;99.90
50013;DHT22;35901;48.694;9.476;2024-01-30T01:17:59;-1.70;99.90
50013;DHT22;35901;48.694;9.476;2024-01-30T01:20:25;-1.60;99.90
50013;DHT22;35901;48.694;9.476;2024-01-30T01:22:50;-1.60;99.90
50013;DHT22;35901;48.694;9.476;2024-01-30T01:25:18;-1.50;99.90
50013;DHT22;35901;48.694;9.476;2024-01-30T01:27:43;-1.60;99.90
50013;DHT22;35901;48.694;9.476;2024-01-30T01:30:16;-1.60;99.90
50013;DHT22;35901;48.694;9.476;2024-01-30T01:32:48;-1.60;99.90
50013;DHT22;35901;48.694;9.476;2024-01-30T01:35:23;-1.70;99.90
50013;DHT22;35901;48.694;9.476;2024-01-30T01:38:21;-1.70;99.90
50013;DHT22;35901;48.694;9.476;2024-01-30T01:40:47;-1.80;99.90
50013;DHT22;35901;48.694;9.476;2024-01-30T01:43:12;-1.80;99.90
50013;DHT22;35901;48.694;9.476;2024-01-30T01:45:38;-1.80;99.90
50013;DHT22;35901;48.694;9.476;2024-01-30T01:48:04;-1.90;99.90
50013;DHT22;35901;48.694;9.476;2024-01-30T01:50:30;-1.90;99.90
50013;DHT22;35901;48.694;9.476;2024-01-30T01:52:56;-1.80;99.90
50013;DHT22;35901;48.694;9.476;2024-01-30T01:55:22;-1.80;99.90
50013;DHT22;35901;48.694;9.476;2024-01-30T01:57:50;-1.80;99.90
50013;DHT22;35901;48.694;9.476;2024-01-30T02:00:18;-1.70;99.90
50013;DHT22;35901;48.694;9.476;2024-01-30T02:02:46;-1.70;99.90
50013;DHT22;35901;48.694;9.476;2024-01-30T02:05:12;-1.70;99.90
50013;DHT22;35901;48.694;9.476;2024-01-30T02:07:38;-1.60;99.90
50013;DHT22;35901;48.694;9.476;2024-01-30T02:10:04;-1.60;99.90
50013;DHT22;35901;48.694;9.476;2024-01-30T02:12:30;-1.70;99.90
50013;DHT22;35901;48.694;9.476;2024-01-30T02:14:56;-1.70;99.90
50013;DHT22;35901;48.694;9.476;2024-01-30T02:17:21;-1.70;99.90
50013;DHT22;35901;48.694;9.476;2024-01-30T02:19:49;-1.70;99.90
50013;DHT22;35901;48.694;9.476;2024-01-30T02:22:14;-1.70;99.90
50013;DHT22;35901;48.694;9.476;2024-01-30T02:24:40;-1.80;99.90
50013;DHT22;35901;48.694;9.476;2024-01-30T02:27:06;-1.80;99.90
50013;DHT22;35901;48.694;9.476;2024-01-30T02:29:31;-1.80;99.90
50013;DHT22;35901;48.694;9.476;2024-01-30T02:31:57;-1.90;99.90
50013;DHT22;35901;48.694;9.476;2024-01-30T02:34:24;-2.00;99.90
50013;DHT22;35901;48.694;9.476;2024-01-30T02:36:50;-2.10;99.90
50013;DHT22;35901;48.694;9.476;2024-01-30T02:39:15;-2.00;99.90
50013;DHT22;35901;48.694;9.476;2024-01-30T02:41:41;-2.00;99.90
50013;DHT22;35901;48.694;9.476;2024-01-30T02:44:07;-2.00;99.90
50013;DHT22;35901;48.694;9.476;2024-01-30T02:46:32;-2.00;99.90
50013;DHT22;35901;48.694;9.476;2024-01-30T02:48:58;-1.90;99.90
50013;DHT22;35901;48.694;9.476;2024-01-30T02:51:23;-1.80;99.90
50013;DHT22;35901;48.694;9.476;2024-01-30T02:53:49;-1.80;99.90
50013;DHT22;35901;48.694;9.476;2024-01-30T02:56:15;-1.80;99.90
50013;DHT22;35901;48.694;9.476;2024-01-30T02:58:40;-1.90;99.90
50013;DHT22;35901;48.694;9.476;2024-01-30T03:01:06;-1.90;99.90
50013;DHT22;35901;48.694;9.476;2024-01-30T03:03:32;-2.00;99.90
50013;DHT22;35901;48.694;9.476;2024-01-30T03:05:59;-2.00;99.90
50013;DHT22;35901;48.694;9.476;2024-01-30T03:08:25;-2.10;99.90
50013;DHT22;35901;48.694;9.476;2024-01-30T03:10:50;-2.10;99.90
50013;DHT22;35901;48.694;9.476;2024-01-30T03:13:16;-2.20;99.90
50013;DHT22;35901;48.694;9.476;2024-01-30T03:15:42;-2.20;99.90
50013;DHT22;35901;48.694;9.476;2024-01-30T03:18:07;-2.20;99.90
50013;DHT22;35901;48.694;9.476;2024-01-30T03:20:33;-2.30;99.90
50013;DHT22;35901;48.694;9.476;2024-01-30T03:23:00;-2.30;99.90
50013;DHT22;35901;48.694;9.476;2024-01-30T03:25:26;-2.40;99.90
50013;DHT22;35901;48.694;9.476;2024-01-30T03:27:51;-2.40;99.90
50013;DHT22;35901;48.694;9.476;2024-01-30T03:30:17;-2.50;99.90
50013;DHT22;35901;48.694;9.476;2024-01-30T03:32:43;-2.50;99.90
50013;DHT22;35901;48.694;9.476;2024-01-30T03:35:09;-2.50;99.90
50013;DHT22;35901;48.694;9.476;2024-01-30T03:37:35;-2.60;99.90
50013;DHT22;35901;48.694;9.476;2024-01-30T03:40:01;-2.60;99.90
50013;DHT22;35901;48.694;9.476;2024-01-30T03:42:27;-2.60;99.90
50013;DHT22;35901;48.694;9.476;2024-01-30T03:44:53;-2.50;99.90
50013;DHT22;35901;48.694;9.476;2024-01-30T03:47:19;-2.50;99.90
50013;DHT22;35901;48.694;9.476;2024-01-30T03:49:45;-2.50;99.90
50013;DHT22;35901;48.694;9.476;2024-01-30T03:52:11;-2.40;99.90
50013;DHT22;35901;48.694;9.476;2024-01-30T03:54:37;-2.40;99.90
50013;DHT22;35901;48.694;9.476;2024-01-30T03:57:03;-2.40;99.90
50013;DHT22;35901;48.694;9.476;2024-01-30T03:59:28;-2.50;99.90
50013;DHT22;35901;48.694;9.476;2024-01-30T04:01:54;-2.50;99.90
50013;DHT22;35901;48.694;9.476;2024-01-30T04:04:20;-2.50;99.90
50013;DHT22;35901;48.694;9.476;2024-01-30T04:06:46;-2.60;99.90
50013;DHT22;35901;48.694;9.476;2024-01-30T04:09:12;-2.50;99.90
50013;DHT22;35901;48.694;9.476;2024-01-30T04:11:39;-2.50;99.90
50013;DHT22;35901;48.694;9.476;2024-01-30T04:14:05;-2.40;99.90
50013;DHT22;35901;48.694;9.476;2024-01-30T04:16:31;-2.30;99.90
50013;DHT22;35901;48.694;9.476;2024-01-30T04:18:56;-2.30;99.90
50013;DHT22;35901;48.694;9.476;2024-01-30T04:21:22;-2.30;99.90
50013;DHT22;35901;48.694;9.476;2024-01-30T04:23:48;-2.30;99.90
50013;DHT22;35901;48.694;9.476;2024-01-30T04:26:14;-2.40;99.90
50013;DHT22;35901;48.694;9.476;2024-01-30T04:28:41;-2.40;99.90
50013;DHT22;35901;48.694;9.476;2024-01-30T04:31:07;-2.50;99.90
50013;DHT22;35901;48.694;9.476;2024-01-30T04:33:33;-2.50;99.90
50013;DHT22;35901;48.694;9.476;2024-01-30T04:35:58;-2.50;99.90
50013;DHT22;35901;48.694;9.476;2024-01-30T04:38:24;-2.50;99.90
50013;DHT22;35901;48.694;9.476;2024-01-30T04:40:50;-2.40;99.90
50013;DHT22;35901;48.694;9.476;2024-01-30T04:43:15;-2.40;99.90
50013;DHT22;35901;48.694;9.476;2024-01-30T04:45:41;-2.50;99.90
50013;DHT22;35901;48.694;9.476;2024-01-30T04:48:07;-2.60;99.90
50013;DHT22;35901;48.694;9.476;2024-01-30T04:50:33;-2.70;99.90
50013;DHT22;35901;48.694;9.476;2024-01-30T04:52:58;-2.80;99.90
50013;DHT22;35901;48.694;9.476;2024-01-30T04:55:26;-2.70;99.90
50013;DHT22;35901;48.694;9.476;2024-01-30T04:57:52;-2.70;99.90
50013;DHT22;35901;48.694;9.476;2024-01-30T05:00:18;-2.70;99.90
50013;DHT22;35901;48.694;9.476;2024-01-30T05:02:43;-2.70;99.90
50013;DHT22;35901;48.694;9.476;2024-01-30T05:05:09;-2.70;99.90
50013;DHT22;35901;48.694;9.476;2024-01-30T05:07:36;-2.80;99.90
50013;DHT22;35901;48.694;9.476;2024-01-30T05:10:02;-2.80;99.90
50013;DHT22;35901;48.694;9.476;2024-01-30T05:12:28;-2.70;99.90
50013;DHT22;35901;48.694;9.476;2024-01-30T05:14:54;-2.80;99.90
50013;DHT22;35901;48.694;9.476;2024-01-30T05:17:20;-2.80;99.90
50013;DHT22;35901;48.694;9.476;2024-01-30T05:19:46;-2.80;99.90
50013;DHT22;35901;48.694;9.476;2024-01-30T05:22:11;-2.90;99.90
50013;DHT22;35901;48.694;9.476;2024-01-30T05:24:41;-2.90;99.90
50013;DHT22;35901;48.694;9.476;2024-01-30T05:27:08;-3.00;99.90
50013;DHT22;35901;48.694;9.476;2024-01-30T05:29:33;-3.00;99.90
50013;DHT22;35901;48.694;9.476;2024-01-30T05:31:59;-3.00;99.90
50013;DHT22;35901;48.694;9.476;2024-01-30T05:34:25;-3.00;99.90
50013;DHT22;35901;48.694;9.476;2024-01-30T05:36:50;-3.00;99.90
50013;DHT22;35901;48.694;9.476;2024-01-30T05:39:16;-3.00;99.90
50013;DHT22;35901;48.694;9.476;2024-01-30T05:41:42;-3.10;99.90
50013;DHT22;35901;48.694;9.476;2024-01-30T05:44:07;-3.10;99.90
50013;DHT22;35901;48.694;9.476;2024-01-30T05:46:35;-3.20;99.90
50013;DHT22;35901;48.694;9.476;2024-01-30T05:49:00;-3.20;99.90
50013;DHT22;35901;48.694;9.476;2024-01-30T05:51:26;-3.20;99.90
50013;DHT22;35901;48.694;9.476;2024-01-30T05:53:53;-3.20;99.90
50013;DHT22;35901;48.694;9.476;2024-01-30T05:56:19;-3.30;99.90
50013;DHT22;35901;48.694;9.476;2024-01-30T05:58:45;-3.20;99.90
50013;DHT22;35901;48.694;9.476;2024-01-30T06:01:10;-3.20;99.90
50013;DHT22;35901;48.694;9.476;2024-01-30T06:03:36;-3.10;99.90
50013;DHT22;35901;48.694;9.476;2024-01-30T06:06:02;-3.00;99.90
50013;DHT22;35901;48.694;9.476;2024-01-30T06:08:28;-2.90;99.90
50013;DHT22;35901;48.694;9.476;2024-01-30T06:10:54;-2.80;99.90
50013;DHT22;35901;48.694;9.476;2024-01-30T06:13:19;-2.80;99.90
50013;DHT22;35901;48.694;9.476;2024-01-30T06:15:45;-2.80;99.90
50013;DHT22;35901;48.694;9.476;2024-01-30T06:18:11;-2.90;99.90
50013;DHT22;35901;48.694;9.476;2024-01-30T06:20:37;-2.90;99.90
50013;DHT22;35901;48.694;9.476;2024-01-30T06:23:02;-3.00;99.90
50013;DHT22;35901;48.694;9.476;2024-01-30T06:25:28;-3.00;99.90
50013;DHT22;35901;48.694;9.476;2024-01-30T06:27:56;-2.90;99.90
50013;DHT22;35901;48.694;9.476;2024-01-30T06:30:21;-2.90;99.90
50013;DHT22;35901;48.694;9.476;2024-01-30T06:32:47;-2.80;99.90
50013;DHT22;35901;48.694;9.476;2024-01-30T06:35:13;-2.80;99.90
50013;DHT22;35901;48.694;9.476;2024-01-30T06:37:38;-2.70;99.90
50013;DHT22;35901;48.694;9.476;2024-01-30T06:40:04;-2.70;99.90
50013;DHT22;35901;48.694;9.476;2024-01-30T06:42:31;-2.70;99.90
50013;DHT22;35901;48.694;9.476;2024-01-30T06:44:56;-2.70;99.90
50013;DHT22;35901;48.694;9.476;2024-01-30T06:47:22;-2.80;99.90
50013;DHT22;35901;48.694;9.476;2024-01-30T06:49:48;-2.90;99.90
50013;DHT22;35901;48.694;9.476;2024-01-30T06:52:13;-2.90;99.90
50013;DHT22;35901;48.694;9.476;2024-01-30T06:54:39;-2.90;99.90
50013;DHT22;35901;48.694;9.476;2024-01-30T06:57:05;-2.90;99.90
50013;DHT22;35901;48.694;9.476;2024-01-30T06:59:34;-2.90;99.90
50013;DHT22;35901;48.694;9.476;2024-01-30T07:02:00;-2.90;99.90
50013;DHT22;35901;48.694;9.476;2024-01-30T07:04:26;-2.90;99.90
50013;DHT22;35901;48.694;9.476;2024-01-30T07:06:51;-2.90;99.90
50013;DHT22;35901;48.694;9.476;2024-01-30T07:09:18;-2.90;99.90
50013;DHT22;35901;48.694;9.476;2024-01-30T07:11:44;-2.80;99.90
50013;DHT22;35901;48.694;9.476;2024-01-30T07:14:10;-2.80;99.90
50013;DHT22;35901;48.694;9.476;2024-01-30T07:16:36;-2.70;99.90
50013;DHT22;35901;48.694;9.476;2024-01-30T07:19:01;-2.70;99.90
50013;DHT22;35901;48.694;9.476;2024-01-30T07:21:28;-2.50;99.90
50013;DHT22;35901;48.694;9.476;2024-01-30T07:23:57;-2.40;99.90
50013;DHT22;35901;48.694;9.476;2024-01-30T07:26:24;-2.20;99.90
50013;DHT22;35901;48.694;9.476;2024-01-30T07:28:51;-1.90;99.90
50013;DHT22;35901;48.694;9.476;2024-01-30T07:31:17;-1.50;99.90
50013;DHT22;35901;48.694;9.476;2024-01-30T07:34:00;-1.10;99.90
50013;DHT22;35901;48.694;9.476;2024-01-30T07:36:30;-0.90;99.90
50013;DHT22;35901;48.694;9.476;2024-01-30T07:38:56;-0.60;99.90
50013;DHT22;35901;48.694;9.476;2024-01-30T07:41:21;-0.30;99.90
50013;DHT22;35901;48.694;9.476;2024-01-30T07:43:48;-0.20;99.90
50013;DHT22;35901;48.694;9.476;2024-01-30T07:46:14;0.00;99.90
50013;DHT22;35901;48.694;9.476;2024-01-30T07:48:39;0.00;99.90
50013;DHT22;35901;48.694;9.476;2024-01-30T07:51:05;0.10;99.90
50013;DHT22;35901;48.694;9.476;2024-01-30T07:53:32;0.20;99.90
50013;DHT22;35901;48.694;9.476;2024-01-30T07:56:01;0.20;99.90
50013;DHT22;35901;48.694;9.476;2024-01-30T07:58:28;0.20;99.90
50013;DHT22;35901;48.694;9.476;2024-01-30T08:01:22;0.20;99.90
50013;DHT22;35901;48.694;9.476;2024-01-30T08:03:49;0.40;99.90
50013;DHT22;35901;48.694;9.476;2024-01-30T08:06:15;0.50;99.90
50013;DHT22;35901;48.694;9.476;2024-01-30T08:08:42;0.70;99.90
50013;DHT22;35901;48.694;9.476;2024-01-30T08:11:08;0.90;99.90
50013;DHT22;35901;48.694;9.476;2024-01-30T08:13:34;1.00;99.90
50013;DHT22;35901;48.694;9.476;2024-01-30T08:15:59;1.10;99.90
50013;DHT22;35901;48.694;9.476;2024-01-30T08:18:25;1.10;99.90
50013;DHT22;35901;48.694;9.476;2024-01-30T08:20:51;1.10;99.90
50013;DHT22;35901;48.694;9.476;2024-01-30T08:23:17;1.00;99.90
50013;DHT22;35901;48.694;9.476;2024-01-30T08:25:42;0.80;99.90
50013;DHT22;35901;48.694;9.476;2024-01-30T08:28:08;0.70;99.90
50013;DHT22;35901;48.694;9.476;2024-01-30T08:30:34;0.50;99.90
50013;DHT22;35901;48.694;9.476;2024-01-30T08:32:59;0.50;99.90
50013;DHT22;35901;48.694;9.476;2024-01-30T08:35:25;0.80;99.90
50013;DHT22;35901;48.694;9.476;2024-01-30T08:37:52;1.00;99.90
50013;DHT22;35901;48.694;9.476;2024-01-30T08:40:17;1.20;99.90
50013;DHT22;35901;48.694;9.476;2024-01-30T08:42:43;1.40;99.90
50013;DHT22;35901;48.694;9.476;2024-01-30T08:45:09;1.60;99.90
50013;DHT22;35901;48.694;9.476;2024-01-30T08:47:35;1.80;99.90
50013;DHT22;35901;48.694;9.476;2024-01-30T08:50:01;1.90;99.90
50013;DHT22;35901;48.694;9.476;2024-01-30T08:52:26;1.90;99.90
50013;DHT22;35901;48.694;9.476;2024-01-30T08:54:52;2.10;99.90
50013;DHT22;35901;48.694;9.476;2024-01-30T08:57:18;2.40;99.90
50013;DHT22;35901;48.694;9.476;2024-01-30T08:59:43;2.70;99.90
50013;DHT22;35901;48.694;9.476;2024-01-30T09:02:13;2.90;99.90
50013;DHT22;35901;48.694;9.476;2024-01-30T09:04:41;3.20;99.90
50013;DHT22;35901;48.694;9.476;2024-01-30T09:07:09;3.40;99.90
50013;DHT22;35901;48.694;9.476;2024-01-30T09:09:35;3.60;99.90
50013;DHT22;35901;48.694;9.476;2024-01-30T09:12:00;3.70;99.90
50013;DHT22;35901;48.694;9.476;2024-01-30T09:14:32;3.90;99.90
50013;DHT22;35901;48.694;9.476;2024-01-30T09:16:58;4.10;99.90
50013;DHT22;35901;48.694;9.476;2024-01-30T09:19:24;4.30;99.90
50013;DHT22;35901;48.694;9.476;2024-01-30T09:21:53;4.30;99.90
50013;DHT22;35901;48.694;9.476;2024-01-30T09:24:19;4.40;99.90
50013;DHT22;35901;48.694;9.476;2024-01-30T09:26:45;4.60;99.90
50013;DHT22;35901;48.694;9.476;2024-01-30T09:29:10;4.60;99.90
50013;DHT22;35901;48.694;9.476;2024-01-30T09:31:36;4.70;99.90
50013;DHT22;35901;48.694;9.476;2024-01-30T09:34:02;4.80;99.90
50013;DHT22;35901;48.694;9.476;2024-01-30T09:36:27;5.00;99.90
50013;DHT22;35901;48.694;9.476;2024-01-30T09:38:53;5.30;99.90
50013;DHT22;35901;48.694;9.476;2024-01-30T09:41:19;5.50;99.90
50013;DHT22;35901;48.694;9.476;2024-01-30T09:43:47;5.60;99.90
50013;DHT22;35901;48.694;9.476;2024-01-30T09:46:17;5.70;99.90
50013;DHT22;35901;48.694;9.476;2024-01-30T09:48:49;5.90;99.90
50013;DHT22;35901;48.694;9.476;2024-01-30T09:51:15;5.90;99.90
50013;DHT22;35901;48.694;9.476;2024-01-30T09:53:42;5.70;99.90
50013;DHT22;35901;48.694;9.476;2024-01-30T09:56:09;5.50;99.90
50013;DHT22;35901;48.694;9.476;2024-01-30T09:58:36;5.40;99.90
50013;DHT22;35901;48.694;9.476;2024-01-30T10:01:02;5.50;99.90
50013;DHT22;35901;48.694;9.476;2024-01-30T10:03:28;5.50;99.90
50013;DHT22;35901;48.694;9.476;2024-01-30T10:05:55;5.70;99.90
50013;DHT22;35901;48.694;9.476;2024-01-30T10:08:21;5.90;99.90
50013;DHT22;35901;48.694;9.476;2024-01-30T10:10:47;6.10;99.90
50013;DHT22;35901;48.694;9.476;2024-01-30T10:13:13;6.10;99.90
50013;DHT22;35901;48.694;9.476;2024-01-30T10:15:39;6.10;99.90
50013;DHT22;35901;48.694;9.476;2024-01-30T10:18:06;6.20;99.90
50013;DHT22;35901;48.694;9.476;2024-01-30T10:20:32;6.20;99.90
50013;DHT22;35901;48.694;9.476;2024-01-30T10:22:58;6.20;99.90
50013;DHT22;35901;48.694;9.476;2024-01-30T10:25:25;6.20;99.90
50013;DHT22;35901;48.694;9.476;2024-01-30T10:27:54;6.20;99.90
50013;DHT22;35901;48.694;9.476;2024-01-30T10:30:24;6.30;99.90
50013;DHT22;35901;48.694;9.476;2024-01-30T10:32:50;6.30;99.90
50013;DHT22;35901;48.694;9.476;2024-01-30T10:35:17;6.50;99.90
50013;DHT22;35901;48.694;9.476;2024-01-30T10:37:48;6.70;99.90
50013;DHT22;35901;48.694;9.476;2024-01-30T10:40:31;6.80;99.90
50013;DHT22;35901;48.694;9.476;2024-01-30T10:43:11;7.00;99.90
50013;DHT22;35901;48.694;9.476;2024-01-30T10:45:45;7.20;99.90
50013;DHT22;35901;48.694;9.476;2024-01-30T10:48:29;7.30;99.90
50013;DHT22;35901;48.694;9.476;2024-01-30T10:50:56;7.50;99.90
50013;DHT22;35901;48.694;9.476;2024-01-30T10:53:25;7.70;99.90
50013;DHT22;35901;48.694;9.476;2024-01-30T10:55:52;7.80;99.90
50013;DHT22;35901;48.694;9.476;2024-01-30T10:58:19;7.80;99.90
50013;DHT22;35901;48.694;9.476;2024-01-30T11:00:46;7.90;99.90
50013;DHT22;35901;48.694;9.476;2024-01-30T11:03:12;7.90;99.90
50013;DHT22;35901;48.694;9.476;2024-01-30T11:05:40;7.80;99.90
50013;DHT22;35901;48.694;9.476;2024-01-30T11:08:13;7.70;99.90
50013;DHT22;35901;48.694;9.476;2024-01-30T11:10:49;7.80;99.90
50013;DHT22;35901;48.694;9.476;2024-01-30T11:13:15;7.80;99.90
50013;DHT22;35901;48.694;9.476;2024-01-30T11:15:41;7.80;99.90
50013;DHT22;35901;48.694;9.476;2024-01-30T11:18:07;7.70;99.90
50013;DHT22;35901;48.694;9.476;2024-01-30T11:20:32;7.50;99.90
50013;DHT22;35901;48.694;9.476;2024-01-30T11:22:59;7.40;99.90
50013;DHT22;35901;48.694;9.476;2024-01-30T11:25:27;7.40;99.90
50013;DHT22;35901;48.694;9.476;2024-01-30T11:27:54;7.40;99.90
50013;DHT22;35901;48.694;9.476;2024-01-30T11:30:31;7.50;99.90
50013;DHT22;35901;48.694;9.476;2024-01-30T11:33:10;7.50;99.90
50013;DHT22;35901;48.694;9.476;2024-01-30T11:35:40;7.70;99.90
50013;DHT22;35901;48.694;9.476;2024-01-30T11:38:08;7.80;99.90
50013;DHT22;35901;48.694;9.476;2024-01-30T11:40:35;8.00;99.90
50013;DHT22;35901;48.694;9.476;2024-01-30T11:43:02;8.20;99.90
50013;DHT22;35901;48.694;9.476;2024-01-30T11:45:28;8.30;99.90
50013;DHT22;35901;48.694;9.476;2024-01-30T11:47:54;8.40;99.90
50013;DHT22;35901;48.694;9.476;2024-01-30T11:50:21;8.50;99.90
50013;DHT22;35901;48.694;9.476;2024-01-30T11:52:47;8.60;99.90
50013;DHT22;35901;48.694;9.476;2024-01-30T11:55:14;8.70;99.90
50013;DHT22;35901;48.694;9.476;2024-01-30T11:57:40;8.70;99.90
50013;DHT22;35901;48.694;9.476;2024-01-30T12:00:13;8.70;99.90
50013;DHT22;35901;48.694;9.476;2024-01-30T12:02:39;8.60;99.90
50013;DHT22;35901;48.694;9.476;2024-01-30T12:05:06;8.60;99.90
50013;DHT22;35901;48.694;9.476;2024-01-30T12:07:35;8.70;99.90
50013;DHT22;35901;48.694;9.476;2024-01-30T12:10:02;8.70;99.90
50013;DHT22;35901;48.694;9.476;2024-01-30T12:12:28;8.70;99.90
50013;DHT22;35901;48.694;9.476;2024-01-30T12:14:55;8.70;99.90
50013;DHT22;35901;48.694;9.476;2024-01-30T12:22:29;8.90;99.90
50013;DHT22;35901;48.694;9.476;2024-01-30T12:24:55;8.90;99.90
50013;DHT22;35901;48.694;9.476;2024-01-30T12:27:21;8.90;99.90
50013;DHT22;35901;48.694;9.476;2024-01-30T12:29:47;9.00;99.90
50013;DHT22;35901;48.694;9.476;2024-01-30T12:32:23;9.00;99.90
50013;DHT22;35901;48.694;9.476;2024-01-30T12:34:54;9.00;99.90
50013;DHT22;35901;48.694;9.476;2024-01-30T12:37:20;9.20;99.90
50013;DHT22;35901;48.694;9.476;2024-01-30T12:39:48;9.30;99.90
50013;DHT22;35901;48.694;9.476;2024-01-30T12:42:14;9.30;99.90
50013;DHT22;35901;48.694;9.476;2024-01-30T12:44:41;9.40;99.90
50013;DHT22;35901;48.694;9.476;2024-01-30T12:47:09;9.40;99.90
50013;DHT22;35901;48.694;9.476;2024-01-30T12:49:49;9.50;99.90
50013;DHT22;35901;48.694;9.476;2024-01-30T12:52:16;9.50;99.90
50013;DHT22;35901;48.694;9.476;2024-01-30T12:54:42;9.60;99.90
50013;DHT22;35901;48.694;9.476;2024-01-30T12:57:08;9.60;99.90
50013;DHT22;35901;48.694;9.476;2024-01-30T12:59:33;9.60;99.90
50013;DHT22;35901;48.694;9.476;2024-01-30T13:02:00;9.60;99.90
50013;DHT22;35901;48.694;9.476;2024-01-30T13:04:27;9.60;99.90
50013;DHT22;35901;48.694;9.476;2024-01-30T13:06:53;9.70;99.90
50013;DHT22;35901;48.694;9.476;2024-01-30T13:09:18;9.60;99.90
50013;DHT22;35901;48.694;9.476;2024-01-30T13:11:45;9.60;99.90
50013;DHT22;35901;48.694;9.476;2024-01-30T13:14:10;9.70;99.90
50013;DHT22;35901;48.694;9.476;2024-01-30T13:16:36;9.70;99.90
50013;DHT22;35901;48.694;9.476;2024-01-30T13:19:02;9.70;99.90
50013;DHT22;35901;48.694;9.476;2024-01-30T13:21:28;9.70;99.90
50013;DHT22;35901;48.694;9.476;2024-01-30T13:23:54;9.80;99.90
50013;DHT22;35901;48.694;9.476;2024-01-30T13:26:23;9.90;99.90
50013;DHT22;35901;48.694;9.476;2024-01-30T13:28:48;10.00;99.90
50013;DHT22;35901;48.694;9.476;2024-01-30T13:31:14;10.10;99.90
50013;DHT22;35901;48.694;9.476;2024-01-30T13:33:40;10.20;99.90
50013;DHT22;35901;48.694;9.476;2024-01-30T13:36:07;10.10;99.90
50013;DHT22;35901;48.694;9.476;2024-01-30T13:38:33;10.10;99.90
50013;DHT22;35901;48.694;9.476;2024-01-30T13:40:59;10.10;99.90
50013;DHT22;35901;48.694;9.476;2024-01-30T13:43:26;10.10;99.90
50013;DHT22;35901;48.694;9.476;2024-01-30T13:45:51;10.00;99.90
50013;DHT22;35901;48.694;9.476;2024-01-30T13:48:17;10.00;99.90
50013;DHT22;35901;48.694;9.476;2024-01-30T13:50:43;10.00;99.90
50013;DHT22;35901;48.694;9.476;2024-01-30T13:53:09;9.90;99.90
50013;DHT22;35901;48.694;9.476;2024-01-30T13:55:35;9.90;99.90
50013;DHT22;35901;48.694;9.476;2024-01-30T13:58:00;9.90;99.90
50013;DHT22;35901;48.694;9.476;2024-01-30T14:00:29;9.90;99.90
50013;DHT22;35901;48.694;9.476;2024-01-30T14:02:54;9.90;99.90
50013;DHT22;35901;48.694;9.476;2024-01-30T14:05:21;9.90;99.90
50013;DHT22;35901;48.694;9.476;2024-01-30T14:07:47;9.90;99.90
50013;DHT22;35901;48.694;9.476;2024-01-30T14:10:13;9.90;99.90
50013;DHT22;35901;48.694;9.476;2024-01-30T14:12:42;9.90;99.90
50013;DHT22;35901;48.694;9.476;2024-01-30T14:15:08;9.80;99.90
50013;DHT22;35901;48.694;9.476;2024-01-30T14:17:41;9.70;99.90
50013;DHT22;35901;48.694;9.476;2024-01-30T14:20:11;9.60;99.90
50013;DHT22;35901;48.694;9.476;2024-01-30T14:22:37;9.60;99.90
50013;DHT22;35901;48.694;9.476;2024-01-30T14:25:04;9.60;99.90
50013;DHT22;35901;48.694;9.476;2024-01-30T14:27:31;9.60;99.90
50013;DHT22;35901;48.694;9.476;2024-01-30T14:29:57;9.60;99.90
50013;DHT22;35901;48.694;9.476;2024-01-30T14:33:02;9.50;99.90
50013;DHT22;35901;48.694;9.476;2024-01-30T14:35:29;9.40;99.90
50013;DHT22;35901;48.694;9.476;2024-01-30T14:38:01;9.40;99.90
50013;DHT22;35901;48.694;9.476;2024-01-30T14:40:56;9.30;99.90
50013;DHT22;35901;48.694;9.476;2024-01-30T14:43:25;9.30;99.90
50013;DHT22;35901;48.694;9.476;2024-01-30T14:45:50;9.30;99.90
50013;DHT22;35901;48.694;9.476;2024-01-30T14:48:17;9.20;99.90
50013;DHT22;35901;48.694;9.476;2024-01-30T14:50:43;9.20;99.90
50013;DHT22;35901;48.694;9.476;2024-01-30T14:53:09;9.10;99.90
50013;DHT22;35901;48.694;9.476;2024-01-30T14:55:34;8.90;99.90
50013;DHT22;35901;48.694;9.476;2024-01-30T14:58:00;8.70;99.90
50013;DHT22;35901;48.694;9.476;2024-01-30T15:00:27;8.60;99.90
50013;DHT22;35901;48.694;9.476;2024-01-30T15:02:53;8.60;99.90
50013;DHT22;35901;48.694;9.476;2024-01-30T15:05:19;8.50;99.90
50013;DHT22;35901;48.694;9.476;2024-01-30T15:07:44;8.50;99.90
50013;DHT22;35901;48.694;9.476;2024-01-30T15:10:10;8.40;99.90
50013;DHT22;35901;48.694;9.476;2024-01-30T15:12:37;8.40;99.90
50013;DHT22;35901;48.694;9.476;2024-01-30T15:15:25;8.40;99.90
50013;DHT22;35901;48.694;9.476;2024-01-30T15:17:56;8.40;99.90
50013;DHT22;35901;48.694;9.476;2024-01-30T15:20:31;8.40;99.90
50013;DHT22;35901;48.694;9.476;2024-01-30T15:23:00;8.40;99.90
50013;DHT22;35901;48.694;9.476;2024-01-30T15:25:26;8.30;99.90
50013;DHT22;35901;48.694;9.476;2024-01-30T15:27:54;8.20;99.90
50013;DHT22;35901;48.694;9.476;2024-01-30T15:30:20;8.00;99.90
50013;DHT22;35901;48.694;9.476;2024-01-30T15:32:46;7.80;99.90
50013;DHT22;35901;48.694;9.476;2024-01-30T15:35:15;7.80;99.90
50013;DHT22;35901;48.694;9.476;2024-01-30T15:37:56;7.70;99.90
50013;DHT22;35901;48.694;9.476;2024-01-30T15:40:23;7.60;99.90